Terminal Aerodrome Forecast
Issued by NWS Wichita, KS

Home | Current Version | Previous Version | Text Only | Print | Product List | Glossary Off
Versions: 1 2 3 4 5 6 7 8 9 10 11 12 13 14

269
FTUS43 KICT 220710 AAA
TAFICT
TAF AMD
KICT 220710Z 2207/2306 36009KT P6SM BKN015 OVC025
     FM220830 36009KT P6SM SCT025 OVC050
     FM221700 01017KT P6SM OVC050
     FM230100 33007KT P6SM SCT120=

USA.gov is the U.S. government's official web portal to all federal, state and local government web resources and services.